Impacts METAR Board INFO
IDs:

KIAH - Houston/Bush Intl, TX, US

Updated at: 0942 UTC 19 Jan 2018
Potential Impact None Slight Moderate High
Time18/21Z 18/22Z 18/23Z 19/00Z 19/01Z 19/02Z 19/03Z 19/04Z 19/05Z 19/06Z 19/07Z 19/08Z 19/09Z
VIS10 10 10 10 10 10 10 10 10 10 10 10 10
CIG80 85 80 80 80 60 80 85 55 55 65 95 100
CoverOVCOVCOVCOVCOVCOVCOVCOVCOVCOVCOVCBKNBKN
FltCatVFRVFRVFRVFRVFRVFRVFRVFRVFRVFRVFRVFRVFR
WX--------------------------
WDir01101300012013001801601301300
WSpd4 5 3 0 4 6 5 0 3 5 5 3 0
WGst-- -- -- -- -- -- -- -- -- -- -- -- --
Raw hourly METARs
KIAH 182053Z VRB04KT 10SM SCT065 OVC080 03/M09 A3047 RMK AO2 SLP319 T00281089 56034 $
KIAH 182153Z 11005KT 10SM SCT065 OVC085 03/M08 A3045 RMK AO2 SLP313 T00281078 $
KIAH 182253Z 13003KT 10SM FEW065 OVC080 03/M08 A3045 RMK AO2 SLP311 T00331078
KIAH 182353Z 00000KT 10SM FEW060 OVC080 03/M08 A3044 RMK AO2 SLP308 T00281078 10033 20011 56011
KIAH 190053Z VRB04KT 10SM FEW065 OVC080 03/M07 A3044 RMK AO2 SLP308 T00281072
KIAH 190153Z 12006KT 10SM BKN060 OVC080 03/M08 A3043 RMK AO2 SLP307 T00281083
KIAH 190253Z 13005KT 10SM SCT060 OVC080 03/M07 A3043 RMK AO2 SLP307 T00281067 58001
KIAH 190353Z 00000KT 10SM SCT055 OVC085 03/M05 A3043 RMK AO2 SLP307 T00281050
KIAH 190453Z 18003KT 10SM BKN055 OVC085 03/M05 A3042 RMK AO2 SLP301 T00281050
KIAH 190553Z 16005KT 10SM BKN055 OVC080 03/M06 A3040 RMK AO2 SLP296 T00281056 10028 20022 400331061 58009
KIAH 190653Z 13005KT 10SM BKN065 OVC080 03/M05 A3038 RMK AO2 SLP287 T00281050
KIAH 190753Z 13003KT 10SM FEW055 BKN095 02/M04 A3035 RMK AO2 SLP277 T00221039
KIAH 190853Z 00000KT 10SM FEW060 BKN100 02/M02 A3034 RMK AO2 SLP276 T00221022 56020